createdAt,value
2022-12-27T00:01:16.676Z,102608.03
2022-12-27T00:03:43.849Z,102609.44
2022-12-27T00:06:22.003Z,102611.09
2022-12-27T00:08:49.256Z,102600.28
2022-12-27T00:11:17.417Z,102604.38
2022-12-27T00:13:44.650Z,102599.53
2022-12-27T00:16:13.391Z,102610.22
2022-12-27T00:18:40.731Z,102604.75
2022-12-27T00:21:08.118Z,102604.31
2022-12-27T00:23:36.864Z,102605.59
2022-12-27T00:26:08.328Z,102603.47
2022-12-27T00:28:35.447Z,102594.78
2022-12-27T00:31:03.725Z,102587.91
2022-12-27T00:33:31.800Z,102595.06
2022-12-27T00:35:59.076Z,102598.28
2022-12-27T00:38:26.136Z,102600.38
2022-12-27T00:40:52.690Z,102601.94
2022-12-27T00:43:19.412Z,102604.44
2022-12-27T00:45:46.111Z,102603.34
2022-12-27T00:48:12.974Z,102596.19
2022-12-27T00:50:40.660Z,102602.03
2022-12-27T00:53:08.137Z,102602.88
2022-12-27T00:55:34.826Z,102602.47
2022-12-27T00:58:01.461Z,102602.75
2022-12-27T01:00:28.142Z,102603.56
2022-12-27T01:02:54.667Z,102599.25
2022-12-27T01:05:22.067Z,102602.06
2022-12-27T01:07:48.712Z,102603.72
2022-12-27T01:10:15.582Z,102602.63
2022-12-27T01:12:42.319Z,102607.09
2022-12-27T01:15:09.657Z,102598.81
2022-12-27T01:17:36.283Z,102608.06
2022-12-27T01:20:02.960Z,102599.91
2022-12-27T01:22:29.548Z,102606.53
2022-12-27T01:24:56.213Z,102602.59
2022-12-27T01:27:22.855Z,102612.84
2022-12-27T01:29:49.457Z,102607.38
2022-12-27T01:32:15.965Z,102613.94
2022-12-27T01:34:42.600Z,102613.69
2022-12-27T01:37:09.173Z,102607.91
2022-12-27T01:39:35.831Z,102603.94
2022-12-27T01:42:21.117Z,102602.94
2022-12-27T01:44:57.884Z,102602.94
2022-12-27T01:47:27.720Z,102605.34
2022-12-27T01:49:58.246Z,102606.91
2022-12-27T01:52:26.707Z,102607.13
2022-12-27T01:54:54.554Z,102607.84
2022-12-27T01:57:21.639Z,102617.53
2022-12-27T01:59:48.619Z,102608.38
2022-12-27T02:02:15.425Z,102613.72
2022-12-27T02:04:42.068Z,102614.59
2022-12-27T02:07:08.706Z,102613.91
2022-12-27T02:09:49.294Z,102612.25
2022-12-27T02:12:16.128Z,102610.56
2022-12-27T02:14:44.113Z,102615.53
2022-12-27T02:17:12.296Z,102611.47
2022-12-27T02:19:41.963Z,102617.53
2022-12-27T02:22:11.297Z,102616.81
2022-12-27T02:25:00.170Z,102616.25
2022-12-27T02:27:39.748Z,102617.28
2022-12-27T02:30:06.899Z,102616.56
2022-12-27T02:32:36.737Z,102621.75
2022-12-27T02:35:09.498Z,102631.31
2022-12-27T02:37:39.709Z,102628.22
2022-12-27T02:40:27.386Z,102632.72
2022-12-27T02:43:13.270Z,102633.72
2022-12-27T02:46:06.085Z,102634.53
2022-12-27T02:48:51.241Z,102641.13
2022-12-27T02:51:50.266Z,102638.28
2022-12-27T02:54:25.878Z,102637.78
2022-12-27T02:57:09.448Z,102636.13
2022-12-27T03:00:13.232Z,102641.03
2022-12-27T03:03:07.816Z,102648.31
2022-12-27T03:06:13.152Z,102648.75
2022-12-27T03:08:49.884Z,102644.84
2022-12-27T03:11:35.858Z,102658.41
2022-12-27T03:14:30.217Z,102652.69
2022-12-27T03:17:01.962Z,102652.09
2022-12-27T03:19:50.185Z,102655.34
2022-12-27T03:22:37.376Z,102657.53
2022-12-27T03:25:23.279Z,102642.75
2022-12-27T03:28:10.759Z,102643.50
2022-12-27T03:30:56.898Z,102650.22
2022-12-27T03:33:25.117Z,102641.41
2022-12-27T03:36:10.273Z,102646.03
2022-12-27T03:38:47.171Z,102645.03
2022-12-27T03:41:39.011Z,102647.84
2022-12-27T03:44:24.223Z,102648.47
2022-12-27T03:46:56.124Z,102644.81
2022-12-27T03:49:41.451Z,102640.59
2022-12-27T03:52:08.100Z,102643.38
2022-12-27T03:54:41.967Z,102639.34
2022-12-27T03:57:11.564Z,102642.78
2022-12-27T03:59:38.667Z,102637.69
2022-12-27T04:02:05.974Z,102631.09
2022-12-27T04:04:32.990Z,102638.88
2022-12-27T04:06:59.590Z,102639.75
2022-12-27T04:09:45.023Z,102635.94
2022-12-27T04:12:30.853Z,102632.75
2022-12-27T04:15:15.920Z,102629.66
2022-12-27T04:18:01.743Z,102628.97
2022-12-27T04:20:47.166Z,102618.19
2022-12-27T04:23:32.441Z,102617.91
2022-12-27T04:26:17.679Z,102617.78
2022-12-27T04:29:02.769Z,102626.06
2022-12-27T04:31:47.834Z,102629.59
2022-12-27T04:34:33.292Z,102629.84
2022-12-27T04:36:59.951Z,102625.72
2022-12-27T04:39:26.498Z,102625.94
2022-12-27T04:42:11.712Z,102625.75
2022-12-27T04:44:56.989Z,102625.31
2022-12-27T04:47:42.396Z,102633.59
2022-12-27T04:50:53.953Z,102630.56
2022-12-27T04:53:40.054Z,102628.41
2022-12-27T04:56:07.089Z,102625.56
2022-12-27T04:58:33.683Z,102629.78
2022-12-27T05:01:20.452Z,102639.06
2022-12-27T05:03:49.175Z,102634.84
2022-12-27T05:06:16.929Z,102645.56
2022-12-27T05:09:10.079Z,102632.81
2022-12-27T05:11:55.264Z,102648.59
2022-12-27T05:14:21.920Z,102640.09
2022-12-27T05:16:48.563Z,102643.25
2022-12-27T05:19:15.561Z,102649.53
2022-12-27T05:22:03.839Z,102647.88
2022-12-27T05:24:49.179Z,102652.03
2022-12-27T05:27:15.980Z,102659.91
2022-12-27T05:29:42.539Z,102665.00
2022-12-27T05:32:13.335Z,102663.72
2022-12-27T05:34:40.701Z,102663.50
2022-12-27T05:37:07.275Z,102667.00
2022-12-27T05:39:33.907Z,102667.38
2022-12-27T05:42:00.483Z,102670.66
2022-12-27T05:44:27.123Z,102675.16
2022-12-27T05:46:54.101Z,102665.69
2022-12-27T05:49:21.612Z,102678.03
2022-12-27T05:51:49.044Z,102671.00
2022-12-27T05:54:15.743Z,102677.53
2022-12-27T05:56:42.375Z,102682.97
2022-12-27T05:59:09.096Z,102675.34
2022-12-27T06:01:35.782Z,102687.09
2022-12-27T06:04:02.711Z,102685.34
2022-12-27T06:06:29.257Z,102686.66
2022-12-27T06:08:55.869Z,102691.41
2022-12-27T06:11:22.454Z,102691.16
2022-12-27T06:13:50.706Z,102698.75
2022-12-27T06:16:17.754Z,102693.69
2022-12-27T06:18:44.657Z,102695.00
2022-12-27T06:21:15.948Z,102698.44
2022-12-27T06:23:44.720Z,102695.88
2022-12-27T06:26:12.596Z,102697.56
2022-12-27T06:28:39.188Z,102700.81
2022-12-27T06:31:05.945Z,102704.78
2022-12-27T06:33:32.724Z,102704.84
2022-12-27T06:35:59.532Z,102715.22
2022-12-27T06:38:26.267Z,102711.84
2022-12-27T06:40:52.848Z,102714.78
2022-12-27T06:43:19.481Z,102710.31
2022-12-27T06:45:54.987Z,102721.06
2022-12-27T06:48:21.616Z,102717.09
2022-12-27T06:50:48.627Z,102724.22
2022-12-27T06:53:15.330Z,102719.16
2022-12-27T06:55:41.852Z,102714.91
2022-12-27T06:58:08.417Z,102719.63
2022-12-27T07:00:34.993Z,102719.41
2022-12-27T07:03:03.089Z,102722.06
2022-12-27T07:05:29.998Z,102721.56
2022-12-27T07:07:56.597Z,102724.94
2022-12-27T07:10:23.284Z,102723.84
2022-12-27T07:12:49.809Z,102723.84
2022-12-27T07:15:16.422Z,102727.84
2022-12-27T07:17:42.933Z,102729.16
2022-12-27T07:20:09.801Z,102731.31
2022-12-27T07:22:36.406Z,102733.50
2022-12-27T07:25:03.106Z,102744.25
2022-12-27T07:27:29.664Z,102743.28
2022-12-27T07:29:56.353Z,102739.78
2022-12-27T07:32:22.910Z,102742.56
2022-12-27T07:34:49.560Z,102737.50
2022-12-27T07:37:17.762Z,102730.25
2022-12-27T07:39:44.769Z,102738.69
2022-12-27T07:42:11.344Z,102736.91
2022-12-27T07:44:38.107Z,102738.13
2022-12-27T07:47:04.955Z,102747.41
2022-12-27T07:49:31.594Z,102739.91
2022-12-27T07:51:58.225Z,102747.03
2022-12-27T07:54:24.856Z,102745.84
2022-12-27T07:56:51.431Z,102746.53
2022-12-27T07:59:18.092Z,102744.13
2022-12-27T08:02:03.263Z,102742.66
2022-12-27T08:04:30.386Z,102755.59
2022-12-27T08:07:00.684Z,102752.44
2022-12-27T08:09:29.340Z,102757.53
2022-12-27T08:11:56.024Z,102763.28
2022-12-27T08:14:22.719Z,102756.16
2022-12-27T08:16:49.336Z,102762.78
2022-12-27T08:19:15.985Z,102760.84
2022-12-27T08:21:42.527Z,102761.66
2022-12-27T08:24:09.130Z,102765.31
2022-12-27T08:26:35.723Z,102767.50
2022-12-27T08:29:02.343Z,102765.91
2022-12-27T08:31:28.919Z,102768.56
2022-12-27T08:33:58.612Z,102763.94
2022-12-27T08:39:12.369Z,102759.72
2022-12-27T08:41:39.355Z,102761.84
2022-12-27T08:44:06.536Z,102762.22
2022-12-27T08:46:33.226Z,102766.81
2022-12-27T08:48:59.983Z,102762.84
2022-12-27T08:51:35.975Z,102765.84
2022-12-27T08:54:07.257Z,102779.38
2022-12-27T08:56:33.828Z,102769.81
2022-12-27T08:59:00.444Z,102779.84
2022-12-27T09:01:27.247Z,102772.13
2022-12-27T09:03:54.044Z,102778.19
2022-12-27T09:06:21.808Z,102781.72
2022-12-27T09:08:49.247Z,102784.56
2022-12-27T09:11:17.334Z,102781.66
2022-12-27T09:13:44.050Z,102788.44
2022-12-27T09:16:15.068Z,102788.81
2022-12-27T09:18:42.181Z,102793.94
2022-12-27T09:21:10.383Z,102796.09
2022-12-27T09:23:37.655Z,102796.09
2022-12-27T09:26:05.237Z,102809.31
2022-12-27T09:28:32.084Z,102801.19
2022-12-27T09:30:58.678Z,102799.66
2022-12-27T09:33:25.324Z,102798.31
2022-12-27T09:35:51.858Z,102798.16
2022-12-27T09:38:18.703Z,102808.44
2022-12-27T09:40:55.591Z,102802.00
2022-12-27T09:43:27.711Z,102805.41
2022-12-27T09:45:56.738Z,102799.75
2022-12-27T09:48:32.767Z,102804.81
2022-12-27T09:51:03.107Z,102801.03
2022-12-27T09:53:51.148Z,102804.41
2022-12-27T09:56:23.352Z,102796.91
2022-12-27T09:58:51.786Z,102801.25
2022-12-27T10:01:21.704Z,102801.69
2022-12-27T10:03:49.289Z,102814.88
2022-12-27T10:06:29.496Z,102815.44
2022-12-27T10:09:06.421Z,102819.69
2022-12-27T10:11:52.544Z,102820.88
2022-12-27T10:14:19.089Z,102811.81
2022-12-27T10:16:50.624Z,102816.88
2022-12-27T10:19:23.876Z,102817.22
2022-12-27T10:22:08.834Z,102812.59
2022-12-27T10:24:45.844Z,102799.78
2022-12-27T10:27:30.887Z,102807.88
2022-12-27T10:29:59.198Z,102807.97
2022-12-27T10:32:26.227Z,102804.50
2022-12-27T10:34:56.892Z,102800.47
2022-12-27T10:37:23.605Z,102794.75
2022-12-27T10:39:50.164Z,102799.66
2022-12-27T10:42:22.732Z,102793.16
2022-12-27T10:44:49.321Z,102790.97
2022-12-27T10:47:16.296Z,102791.91
2022-12-27T10:49:44.832Z,102783.47
2022-12-27T10:52:17.979Z,102775.72
2022-12-27T10:54:51.967Z,102763.75
2022-12-27T10:57:25.971Z,102769.84
2022-12-27T11:00:11.228Z,102768.34
2022-12-27T11:02:48.781Z,102762.88
2022-12-27T11:05:20.728Z,102754.41
2022-12-27T11:07:47.368Z,102755.94
2022-12-27T11:10:23.927Z,102759.66
2022-12-27T11:12:57.149Z,102748.59
2022-12-27T11:15:24.399Z,102741.72
2022-12-27T11:17:53.786Z,102742.75
2022-12-27T11:20:22.335Z,102733.88
2022-12-27T11:22:52.359Z,102732.56
2022-12-27T11:25:19.353Z,102727.84
2022-12-27T11:27:52.947Z,102729.03
2022-12-27T11:30:39.831Z,102728.56
2022-12-27T11:33:26.388Z,102722.53
2022-12-27T11:35:54.350Z,102711.44
2022-12-27T11:38:25.270Z,102707.59
2022-12-27T11:40:58.811Z,102704.41
2022-12-27T11:43:27.808Z,102702.03
2022-12-27T11:45:55.875Z,102694.84
2022-12-27T11:48:28.295Z,102699.69
2022-12-27T11:50:55.540Z,102694.66
2022-12-27T11:53:42.050Z,102695.34
2022-12-27T11:56:16.989Z,102693.97
2022-12-27T11:58:49.823Z,102684.38
2022-12-27T12:01:48.853Z,102683.84
2022-12-27T12:04:21.629Z,102679.13
2022-12-27T12:07:03.673Z,102666.69
2022-12-27T12:09:48.805Z,102667.00
2022-12-27T12:12:21.295Z,102660.41
2022-12-27T12:14:51.738Z,102659.34
2022-12-27T12:17:32.471Z,102655.09
2022-12-27T12:20:14.217Z,102650.72
2022-12-27T12:22:59.977Z,102641.28
2022-12-27T12:25:32.416Z,102637.06
2022-12-27T12:28:47.260Z,102631.16
2022-12-27T12:31:23.081Z,102630.09
2022-12-27T12:34:07.782Z,102617.94
2022-12-27T12:36:34.409Z,102618.41
2022-12-27T12:39:06.923Z,102615.72
2022-12-27T12:41:52.149Z,102609.75
2022-12-27T12:44:31.744Z,102599.34
2022-12-27T12:47:19.417Z,102601.31
2022-12-27T12:50:07.944Z,102598.44
2022-12-27T12:52:45.607Z,102599.13
2022-12-27T12:55:12.165Z,102593.38
2022-12-27T12:57:44.965Z,102598.38
2022-12-27T13:00:15.289Z,102585.59
2022-12-27T13:02:58.704Z,102578.47
2022-12-27T13:05:40.759Z,102578.09
2022-12-27T13:08:13.144Z,102574.69
2022-12-27T13:10:42.608Z,102574.69
2022-12-27T13:13:29.406Z,102570.13
2022-12-27T13:15:56.090Z,102561.50
2022-12-27T13:18:41.512Z,102566.69
2022-12-27T13:21:28.392Z,102553.25
2022-12-27T13:24:02.041Z,102552.72
2022-12-27T13:26:38.593Z,102553.53
2022-12-27T13:29:05.163Z,102550.00
2022-12-27T13:31:58.974Z,102548.44
2022-12-27T13:34:28.333Z,102542.22
2022-12-27T13:37:13.440Z,102544.75
2022-12-27T13:39:42.882Z,102534.56
2022-12-27T13:42:18.445Z,102548.91
2022-12-27T13:44:45.157Z,102539.63
2022-12-27T13:47:12.406Z,102536.94
2022-12-27T13:49:51.662Z,102539.25
2022-12-27T13:52:36.833Z,102534.69
2022-12-27T13:55:06.274Z,102532.19
2022-12-27T13:57:51.353Z,102527.28
2022-12-27T14:00:18.156Z,102535.53
2022-12-27T14:02:44.892Z,102534.25
2022-12-27T14:05:31.007Z,102535.44
2022-12-27T14:08:16.263Z,102536.44
2022-12-27T14:10:53.868Z,102531.69
2022-12-27T14:13:34.435Z,102535.63
2022-12-27T14:16:13.434Z,102525.56
2022-12-27T14:18:40.050Z,102538.41
2022-12-27T14:21:06.581Z,102521.56
2022-12-27T14:23:51.857Z,102520.81
2022-12-27T14:26:21.548Z,102528.91
2022-12-27T14:29:06.814Z,102520.16
2022-12-27T14:31:50.275Z,102518.84
2022-12-27T14:34:57.430Z,102521.91
2022-12-27T14:37:25.872Z,102526.66
2022-12-27T14:40:11.334Z,102527.19
2022-12-27T14:42:56.872Z,102520.47
2022-12-27T14:45:32.667Z,102522.63
2022-12-27T14:48:02.128Z,102514.75
2022-12-27T14:50:47.310Z,102511.69
2022-12-27T14:53:31.765Z,102517.44
2022-12-27T14:56:16.944Z,102517.94
2022-12-27T14:58:43.641Z,102514.31
2022-12-27T15:01:28.790Z,102510.81
2022-12-27T15:04:03.275Z,102514.03
2022-12-27T15:06:33.070Z,102514.88
2022-12-27T15:09:09.389Z,102514.19
2022-12-27T15:11:47.793Z,102510.38
2022-12-27T15:14:31.348Z,102511.22
2022-12-27T15:17:06.898Z,102516.78
2022-12-27T15:19:39.582Z,102515.75
2022-12-27T15:22:13.172Z,102518.78
2022-12-27T15:24:39.782Z,102516.28
2022-12-27T15:27:06.366Z,102521.84
2022-12-27T15:29:36.039Z,102526.44
2022-12-27T15:32:05.472Z,102521.94
2022-12-27T15:34:41.176Z,102527.13
2022-12-27T15:37:27.730Z,102527.31
2022-12-27T15:39:54.430Z,102529.81
2022-12-27T15:42:43.399Z,102540.06
2022-12-27T15:45:32.862Z,102538.78
2022-12-27T15:48:18.074Z,102545.16
2022-12-27T15:50:47.482Z,102547.16
2022-12-27T15:53:22.866Z,102545.53
2022-12-27T15:56:01.508Z,102538.97
2022-12-27T15:58:28.335Z,102550.44
2022-12-27T16:01:13.601Z,102547.06
2022-12-27T16:03:41.839Z,102550.59
2022-12-27T16:06:09.307Z,102549.94
2022-12-27T16:08:37.867Z,102547.41
2022-12-27T16:11:05.592Z,102550.28
2022-12-27T16:13:41.376Z,102554.50
2022-12-27T16:16:33.475Z,102545.09
2022-12-27T16:19:13.017Z,102551.16
2022-12-27T16:21:42.769Z,102544.28
2022-12-27T16:24:16.517Z,102544.78
2022-12-27T16:26:54.918Z,102548.81
2022-12-27T16:29:24.573Z,102551.84
2022-12-27T16:31:51.640Z,102549.69
2022-12-27T16:34:23.940Z,102555.56
2022-12-27T16:36:52.102Z,102553.91
2022-12-27T16:39:28.249Z,102553.75
2022-12-27T16:41:55.054Z,102556.97
2022-12-27T16:44:33.163Z,102553.06
2022-12-27T16:47:09.311Z,102558.78
2022-12-27T16:49:55.620Z,102558.31
2022-12-27T16:52:41.056Z,102562.81
2022-12-27T16:55:13.549Z,102568.38
2022-12-27T16:57:44.461Z,102570.22
2022-12-27T17:00:11.154Z,102567.19
2022-12-27T17:02:40.603Z,102569.53
2022-12-27T17:05:16.334Z,102569.72
2022-12-27T17:07:50.594Z,102569.22
2022-12-27T17:10:35.400Z,102572.22
2022-12-27T17:13:04.839Z,102568.03
2022-12-27T17:15:32.061Z,102563.84
2022-12-27T17:18:04.500Z,102568.53
2022-12-27T17:20:31.380Z,102572.22
2022-12-27T17:22:58.408Z,102570.88
2022-12-27T17:25:30.084Z,102575.41
2022-12-27T17:27:56.652Z,102577.75
2022-12-27T17:30:33.866Z,102570.56
2022-12-27T17:33:15.058Z,102571.56
2022-12-27T17:36:20.261Z,102570.88
2022-12-27T17:38:52.353Z,102557.97
2022-12-27T17:41:47.665Z,102570.56
2022-12-27T17:44:38.788Z,102570.56
2022-12-27T17:47:24.000Z,102573.53
2022-12-27T17:49:51.061Z,102571.22
2022-12-27T17:52:37.370Z,102565.84
2022-12-27T17:55:39.125Z,102566.66
2022-12-27T17:58:07.779Z,102571.34
2022-12-27T18:00:37.753Z,102576.69
2022-12-27T18:03:07.935Z,102575.00
2022-12-27T18:05:36.829Z,102581.22
2022-12-27T18:08:05.098Z,102575.69
2022-12-27T18:10:34.387Z,102582.22
2022-12-27T18:13:02.965Z,102583.19
2022-12-27T18:15:32.307Z,102578.69
2022-12-27T18:18:00.304Z,102588.06
2022-12-27T18:20:29.700Z,102584.53
2022-12-27T18:23:02.046Z,102587.22
2022-12-27T18:25:42.742Z,102590.22
2022-12-27T18:28:16.565Z,102585.03
2022-12-27T18:30:45.844Z,102588.72
2022-12-27T18:33:13.749Z,102585.69
2022-12-27T18:35:44.401Z,102595.56
2022-12-27T18:38:14.387Z,102594.91
2022-12-27T18:40:41.849Z,102594.03
2022-12-27T18:43:15.329Z,102596.06
2022-12-27T18:45:42.094Z,102591.53
2022-12-27T18:48:14.640Z,102597.88
2022-12-27T18:50:49.021Z,102598.06
2022-12-27T18:53:45.790Z,102600.06
2022-12-27T18:56:15.782Z,102597.72
2022-12-27T18:59:01.108Z,102599.34
2022-12-27T19:01:30.956Z,102603.88
2022-12-27T19:04:19.163Z,102603.22
2022-12-27T19:06:55.333Z,102605.38
2022-12-27T19:09:23.770Z,102602.00
2022-12-27T19:11:55.416Z,102612.44
2022-12-27T19:14:22.773Z,102605.53
2022-12-27T19:16:51.331Z,102602.69
2022-12-27T19:19:20.388Z,102602.31
2022-12-27T19:21:46.954Z,102601.47
2022-12-27T19:24:19.858Z,102601.09
2022-12-27T19:26:46.600Z,102607.31
2022-12-27T19:29:14.664Z,102610.22
2022-12-27T19:31:43.262Z,102610.53
2022-12-27T19:34:13.210Z,102608.13
2022-12-27T19:36:40.889Z,102606.25
2022-12-27T19:39:19.118Z,102612.41
2022-12-27T19:41:46.292Z,102600.66
2022-12-27T19:44:12.974Z,102597.28
2022-12-27T19:46:39.625Z,102603.94
2022-12-27T19:51:55.771Z,102605.50
2022-12-27T19:54:22.975Z,102607.84
2022-12-27T19:56:49.743Z,102603.41
2022-12-27T19:59:17.734Z,102605.66
2022-12-27T20:01:45.589Z,102612.53
2022-12-27T20:04:12.824Z,102609.84
2022-12-27T20:06:39.621Z,102611.28
2022-12-27T20:09:09.229Z,102619.16
2022-12-27T20:11:36.037Z,102613.41
2022-12-27T20:14:02.653Z,102610.59
2022-12-27T20:16:29.258Z,102607.16
2022-12-27T20:19:00.105Z,102603.94
2022-12-27T20:21:26.707Z,102599.06
2022-12-27T20:23:53.280Z,102592.44
2022-12-27T20:26:21.412Z,102590.88
2022-12-27T20:28:48.500Z,102588.38
2022-12-27T20:31:16.753Z,102585.53
2022-12-27T20:33:43.510Z,102588.81
2022-12-27T20:36:10.488Z,102593.81
2022-12-27T20:38:40.231Z,102586.59
2022-12-27T20:41:11.429Z,102588.09
2022-12-27T20:43:38.087Z,102586.25
2022-12-27T20:46:09.059Z,102586.38
2022-12-27T20:48:40.000Z,102590.81
2022-12-27T20:51:07.704Z,102589.84
2022-12-27T20:53:34.222Z,102590.25
2022-12-27T20:56:01.285Z,102593.94
2022-12-27T20:58:28.118Z,102594.88
2022-12-27T21:00:54.890Z,102591.44
2022-12-27T21:03:21.738Z,102597.84
2022-12-27T21:05:48.451Z,102588.19
2022-12-27T21:08:15.013Z,102590.97
2022-12-27T21:10:41.707Z,102599.22
2022-12-27T21:13:08.433Z,102585.22
2022-12-27T21:15:42.124Z,102592.88
2022-12-27T21:18:09.172Z,102589.78
2022-12-27T21:20:35.737Z,102590.50
2022-12-27T21:23:02.383Z,102585.41
2022-12-27T21:25:28.966Z,102590.59
2022-12-27T21:27:55.506Z,102592.97
2022-12-27T21:30:22.066Z,102582.44
2022-12-27T21:32:48.686Z,102588.09
2022-12-27T21:35:16.257Z,102586.84
2022-12-27T21:37:42.978Z,102593.34
2022-12-27T21:40:09.928Z,102584.84
2022-12-27T21:42:36.505Z,102588.66
2022-12-27T21:45:03.189Z,102582.66
2022-12-27T21:47:31.639Z,102589.38
2022-12-27T21:49:58.162Z,102583.94
2022-12-27T21:52:24.741Z,102584.59
2022-12-27T21:54:51.332Z,102577.59
2022-12-27T21:57:17.936Z,102576.13
2022-12-27T21:59:44.502Z,102587.06
2022-12-27T22:02:11.417Z,102580.59
2022-12-27T22:04:38.176Z,102586.97
2022-12-27T22:07:04.797Z,102585.44
2022-12-27T22:09:31.374Z,102579.00
2022-12-27T22:11:57.952Z,102575.31
2022-12-27T22:14:25.763Z,102582.66
2022-12-27T22:16:53.631Z,102580.66
2022-12-27T22:19:20.189Z,102581.53
2022-12-27T22:21:46.850Z,102574.78
2022-12-27T22:24:19.246Z,102574.94
2022-12-27T22:26:48.389Z,102566.94
2022-12-27T22:29:15.001Z,102566.06
2022-12-27T22:31:42.851Z,102567.50
2022-12-27T22:34:09.525Z,102567.22
2022-12-27T22:36:36.364Z,102561.63
2022-12-27T22:39:03.590Z,102562.78
2022-12-27T22:41:31.675Z,102556.19
2022-12-27T22:44:03.098Z,102564.56
2022-12-27T22:46:51.046Z,102555.75
2022-12-27T22:49:17.323Z,102557.84
2022-12-27T22:51:43.963Z,102549.84
2022-12-27T22:54:10.669Z,102549.16
2022-12-27T22:56:38.502Z,102543.56
2022-12-27T22:59:10.006Z,102552.84
2022-12-27T23:01:36.786Z,102544.84
2022-12-27T23:04:04.724Z,102546.72
2022-12-27T23:06:32.239Z,102542.06
2022-12-27T23:08:59.215Z,102542.66
2022-12-27T23:11:27.413Z,102546.63
2022-12-27T23:13:59.374Z,102542.13
2022-12-27T23:16:26.038Z,102532.56
2022-12-27T23:18:52.763Z,102531.13
2022-12-27T23:21:24.406Z,102541.28
2022-12-27T23:23:51.772Z,102536.91
2022-12-27T23:26:19.561Z,102545.59
2022-12-27T23:28:46.794Z,102535.38
2022-12-27T23:31:14.046Z,102535.97
2022-12-27T23:33:41.713Z,102528.66
2022-12-27T23:36:08.765Z,102538.03
2022-12-27T23:38:35.559Z,102538.19
2022-12-27T23:41:03.378Z,102532.84
2022-12-27T23:43:51.500Z,102530.03
2022-12-27T23:46:18.669Z,102535.66
2022-12-27T23:48:45.276Z,102526.97
2022-12-27T23:51:12.600Z,102534.28
2022-12-27T23:53:39.307Z,102527.25
2022-12-27T23:56:13.052Z,102525.28
2022-12-27T23:58:39.678Z,102522.75
